sensor_id;sensor_type;location;lat;lon;timestamp;pressure;altitude;pressure_sealevel;temperature;humidity
11198;BME280;5655;48.744;9.162;2023-05-28T00:00:27;96339.97;;;18.72;100.00
11198;BME280;5655;48.744;9.162;2023-05-28T00:02:52;96341.34;;;18.80;100.00
11198;BME280;5655;48.744;9.162;2023-05-28T00:05:18;96346.19;;;18.69;100.00
11198;BME280;5655;48.744;9.162;2023-05-28T00:07:43;96339.97;;;18.48;100.00
11198;BME280;5655;48.744;9.162;2023-05-28T00:10:09;96344.91;;;18.77;100.00
11198;BME280;5655;48.744;9.162;2023-05-28T00:12:34;96337.84;;;18.59;100.00
11198;BME280;5655;48.744;9.162;2023-05-28T00:14:59;96340.63;;;18.56;100.00
11198;BME280;5655;48.744;9.162;2023-05-28T00:17:25;96327.84;;;18.33;100.00
11198;BME280;5655;48.744;9.162;2023-05-28T00:19:50;96338.00;;;18.29;100.00
11198;BME280;5655;48.744;9.162;2023-05-28T00:22:15;96337.44;;;18.14;100.00
11198;BME280;5655;48.744;9.162;2023-05-28T00:24:41;96328.91;;;18.16;100.00
11198;BME280;5655;48.744;9.162;2023-05-28T00:27:06;96334.56;;;18.02;100.00
11198;BME280;5655;48.744;9.162;2023-05-28T00:29:32;96318.53;;;17.88;100.00
11198;BME280;5655;48.744;9.162;2023-05-28T00:31:57;96317.84;;;18.07;100.00
11198;BME280;5655;48.744;9.162;2023-05-28T00:34:23;96317.53;;;18.01;100.00
11198;BME280;5655;48.744;9.162;2023-05-28T00:36:49;96322.31;;;17.94;100.00
11198;BME280;5655;48.744;9.162;2023-05-28T00:39:18;96323.88;;;17.91;100.00
11198;BME280;5655;48.744;9.162;2023-05-28T00:41:44;96316.28;;;17.83;100.00
11198;BME280;5655;48.744;9.162;2023-05-28T00:44:09;96316.19;;;17.90;100.00
11198;BME280;5655;48.744;9.162;2023-05-28T00:46:36;96305.72;;;18.15;100.00
11198;BME280;5655;48.744;9.162;2023-05-28T00:49:02;96315.66;;;17.98;100.00
11198;BME280;5655;48.744;9.162;2023-05-28T00:51:28;96316.91;;;17.94;100.00
11198;BME280;5655;48.744;9.162;2023-05-28T00:53:54;96315.94;;;18.04;100.00
11198;BME280;5655;48.744;9.162;2023-05-28T00:56:20;96311.22;;;18.08;100.00
11198;BME280;5655;48.744;9.162;2023-05-28T00:58:47;96309.81;;;18.00;100.00
11198;BME280;5655;48.744;9.162;2023-05-28T01:01:14;96312.81;;;18.05;100.00
11198;BME280;5655;48.744;9.162;2023-05-28T01:03:39;96305.34;;;18.13;100.00
11198;BME280;5655;48.744;9.162;2023-05-28T01:06:07;96311.22;;;18.08;100.00
11198;BME280;5655;48.744;9.162;2023-05-28T01:08:36;96305.44;;;17.83;100.00
11198;BME280;5655;48.744;9.162;2023-05-28T01:11:02;96303.06;;;17.61;100.00
11198;BME280;5655;48.744;9.162;2023-05-28T01:13:28;96307.75;;;17.57;100.00
11198;BME280;5655;48.744;9.162;2023-05-28T01:15:53;96303.63;;;17.49;100.00
11198;BME280;5655;48.744;9.162;2023-05-28T01:18:19;96306.75;;;17.75;100.00
11198;BME280;5655;48.744;9.162;2023-05-28T01:20:45;96299.38;;;17.48;100.00
11198;BME280;5655;48.744;9.162;2023-05-28T01:23:17;96304.19;;;17.37;100.00
11198;BME280;5655;48.744;9.162;2023-05-28T01:25:50;96297.03;;;17.50;100.00
11198;BME280;5655;48.744;9.162;2023-05-28T01:28:16;96305.22;;;17.47;100.00
11198;BME280;5655;48.744;9.162;2023-05-28T01:30:42;96302.91;;;17.45;100.00
11198;BME280;5655;48.744;9.162;2023-05-28T01:33:08;96293.56;;;17.50;100.00
11198;BME280;5655;48.744;9.162;2023-05-28T01:35:36;96303.72;;;17.42;100.00
11198;BME280;5655;48.744;9.162;2023-05-28T01:38:02;96296.81;;;17.38;100.00
11198;BME280;5655;48.744;9.162;2023-05-28T01:40:28;96296.78;;;17.41;100.00
11198;BME280;5655;48.744;9.162;2023-05-28T01:42:55;96296.78;;;17.41;100.00
11198;BME280;5655;48.744;9.162;2023-05-28T01:45:22;96298.03;;;17.63;100.00
11198;BME280;5655;48.744;9.162;2023-05-28T01:47:48;96294.31;;;17.23;100.00
11198;BME280;5655;48.744;9.162;2023-05-28T01:50:14;96298.38;;;17.35;100.00
11198;BME280;5655;48.744;9.162;2023-05-28T01:52:40;96292.66;;;17.56;100.00
11198;BME280;5655;48.744;9.162;2023-05-28T01:55:06;96301.22;;;17.28;100.00
11198;BME280;5655;48.744;9.162;2023-05-28T01:57:34;96286.97;;;17.24;100.00
11198;BME280;5655;48.744;9.162;2023-05-28T01:59:59;96289.38;;;17.45;100.00
11198;BME280;5655;48.744;9.162;2023-05-28T02:02:25;96289.81;;;17.40;100.00
11198;BME280;5655;48.744;9.162;2023-05-28T02:04:53;96289.94;;;17.33;100.00
11198;BME280;5655;48.744;9.162;2023-05-28T02:07:19;96292.47;;;17.17;100.00
11198;BME280;5655;48.744;9.162;2023-05-28T02:09:44;96281.84;;;17.03;100.00
11198;BME280;5655;48.744;9.162;2023-05-28T02:12:10;96282.38;;;17.21;100.00
11198;BME280;5655;48.744;9.162;2023-05-28T02:14:36;96282.47;;;17.14;100.00
11198;BME280;5655;48.744;9.162;2023-05-28T02:17:01;96275.25;;;17.04;100.00
11198;BME280;5655;48.744;9.162;2023-05-28T02:19:27;96276.16;;;17.24;100.00
11198;BME280;5655;48.744;9.162;2023-05-28T02:21:52;96273.94;;;17.15;100.00
11198;BME280;5655;48.744;9.162;2023-05-28T02:24:18;96271.91;;;16.93;100.00
11198;BME280;5655;48.744;9.162;2023-05-28T02:26:44;96275.06;;;16.88;100.00
11198;BME280;5655;48.744;9.162;2023-05-28T02:29:09;96273.91;;;16.89;100.00
11198;BME280;5655;48.744;9.162;2023-05-28T02:31:34;96270.34;;;16.65;100.00
11198;BME280;5655;48.744;9.162;2023-05-28T02:34:00;96271.09;;;16.65;100.00
11198;BME280;5655;48.744;9.162;2023-05-28T02:36:25;96265.22;;;16.70;100.00
11198;BME280;5655;48.744;9.162;2023-05-28T02:38:50;96268.34;;;16.69;100.00
11198;BME280;5655;48.744;9.162;2023-05-28T02:41:16;96267.31;;;16.56;100.00
11198;BME280;5655;48.744;9.162;2023-05-28T02:43:41;96264.13;;;16.68;100.00
11198;BME280;5655;48.744;9.162;2023-05-28T02:46:07;96261.50;;;16.61;100.00
11198;BME280;5655;48.744;9.162;2023-05-28T02:48:32;96250.16;;;16.35;100.00
11198;BME280;5655;48.744;9.162;2023-05-28T02:50:58;96264.81;;;16.38;100.00
11198;BME280;5655;48.744;9.162;2023-05-28T02:53:23;96270.19;;;16.42;100.00
11198;BME280;5655;48.744;9.162;2023-05-28T02:55:49;96262.53;;;16.33;100.00
11198;BME280;5655;48.744;9.162;2023-05-28T02:58:15;96264.31;;;16.13;100.00
11198;BME280;5655;48.744;9.162;2023-05-28T03:00:41;96273.44;;;16.22;100.00
11198;BME280;5655;48.744;9.162;2023-05-28T03:03:06;96275.03;;;16.20;100.00
11198;BME280;5655;48.744;9.162;2023-05-28T03:05:32;96271.97;;;16.18;100.00
11198;BME280;5655;48.744;9.162;2023-05-28T03:08:00;96269.81;;;15.99;100.00
11198;BME280;5655;48.744;9.162;2023-05-28T03:10:26;96270.47;;;16.10;100.00
11198;BME280;5655;48.744;9.162;2023-05-28T03:12:51;96283.91;;;16.20;100.00
11198;BME280;5655;48.744;9.162;2023-05-28T03:15:16;96281.31;;;16.06;100.00
11198;BME280;5655;48.744;9.162;2023-05-28T03:17:42;96275.88;;;16.10;100.00
11198;BME280;5655;48.744;9.162;2023-05-28T03:20:07;96277.75;;;16.16;100.00
11198;BME280;5655;48.744;9.162;2023-05-28T03:22:35;96275.41;;;16.18;100.00
11198;BME280;5655;48.744;9.162;2023-05-28T03:25:01;96273.53;;;16.15;100.00
11198;BME280;5655;48.744;9.162;2023-05-28T03:27:27;96289.84;;;16.05;100.00
11198;BME280;5655;48.744;9.162;2023-05-28T03:29:52;96285.19;;;16.09;100.00
11198;BME280;5655;48.744;9.162;2023-05-28T03:32:17;96285.56;;;16.07;100.00
11198;BME280;5655;48.744;9.162;2023-05-28T03:34:43;96280.56;;;16.06;100.00
11198;BME280;5655;48.744;9.162;2023-05-28T03:37:08;96277.38;;;16.14;100.00
11198;BME280;5655;48.744;9.162;2023-05-28T03:39:33;96276.63;;;16.14;100.00
11198;BME280;5655;48.744;9.162;2023-05-28T03:41:58;96280.50;;;16.09;100.00
11198;BME280;5655;48.744;9.162;2023-05-28T03:44:24;96285.06;;;16.19;100.00
11198;BME280;5655;48.744;9.162;2023-05-28T03:46:49;96282.00;;;16.17;100.00
11198;BME280;5655;48.744;9.162;2023-05-28T03:49:14;96278.84;;;16.26;100.00
11198;BME280;5655;48.744;9.162;2023-05-28T03:51:39;96276.63;;;16.14;100.00
11198;BME280;5655;48.744;9.162;2023-05-28T03:54:05;96284.38;;;16.12;100.00
11198;BME280;5655;48.744;9.162;2023-05-28T03:56:31;96277.44;;;16.11;100.00
11198;BME280;5655;48.744;9.162;2023-05-28T03:58:58;96271.25;;;16.10;100.00
11198;BME280;5655;48.744;9.162;2023-05-28T04:01:24;96279.81;;;16.02;100.00
11198;BME280;5655;48.744;9.162;2023-05-28T04:03:49;96278.97;;;16.12;100.00
11198;BME280;5655;48.744;9.162;2023-05-28T04:06:15;96276.78;;;16.00;100.00
11198;BME280;5655;48.744;9.162;2023-05-28T04:08:40;96275.25;;;15.95;100.00
11198;BME280;5655;48.744;9.162;2023-05-28T04:11:05;96276.88;;;15.85;100.00
11198;BME280;5655;48.744;9.162;2023-05-28T04:13:31;96279.78;;;16.09;100.00
11198;BME280;5655;48.744;9.162;2023-05-28T04:15:57;96283.53;;;16.18;100.00
11198;BME280;5655;48.744;9.162;2023-05-28T04:18:22;96275.13;;;16.09;100.00
11198;BME280;5655;48.744;9.162;2023-05-28T04:20:47;96271.97;;;16.18;100.00
11198;BME280;5655;48.744;9.162;2023-05-28T04:23:13;96280.34;;;16.27;100.00
11198;BME280;5655;48.744;9.162;2023-05-28T04:25:38;96280.34;;;16.27;100.00
11198;BME280;5655;48.744;9.162;2023-05-28T04:28:03;96284.97;;;16.30;100.00
11198;BME280;5655;48.744;9.162;2023-05-28T04:30:29;96286.03;;;15.99;100.00
11198;BME280;5655;48.744;9.162;2023-05-28T04:32:54;96280.66;;;15.95;100.00
11198;BME280;5655;48.744;9.162;2023-05-28T04:35:21;96279.16;;;15.91;100.00
11198;BME280;5655;48.744;9.162;2023-05-28T04:37:47;96286.75;;;16.03;100.00
11198;BME280;5655;48.744;9.162;2023-05-28T04:40:16;96287.09;;;16.08;100.00
11198;BME280;5655;48.744;9.162;2023-05-28T04:42:42;96277.28;;;16.25;100.00
11198;BME280;5655;48.744;9.162;2023-05-28T04:45:08;96283.34;;;16.36;100.00
11198;BME280;5655;48.744;9.162;2023-05-28T04:47:34;96287.28;;;16.28;100.00
11198;BME280;5655;48.744;9.162;2023-05-28T04:50:04;96289.53;;;16.37;100.00
11198;BME280;5655;48.744;9.162;2023-05-28T04:52:30;96290.28;;;16.37;100.00
11198;BME280;5655;48.744;9.162;2023-05-28T04:55:01;96290.59;;;16.46;100.00
11198;BME280;5655;48.744;9.162;2023-05-28T04:57:26;96296.94;;;16.66;100.00
11198;BME280;5655;48.744;9.162;2023-05-28T04:59:52;96298.56;;;16.57;100.00
11198;BME280;5655;48.744;9.162;2023-05-28T05:02:17;96298.69;;;16.46;100.00
11198;BME280;5655;48.744;9.162;2023-05-28T05:04:44;96298.00;;;16.39;100.00
11198;BME280;5655;48.744;9.162;2023-05-28T05:07:09;96295.78;;;16.30;100.00
11198;BME280;5655;48.744;9.162;2023-05-28T05:09:34;96293.41;;;16.32;100.00
11198;BME280;5655;48.744;9.162;2023-05-28T05:12:00;96294.88;;;16.40;100.00
11198;BME280;5655;48.744;9.162;2023-05-28T05:14:25;96288.88;;;16.63;100.00
11198;BME280;5655;48.744;9.162;2023-05-28T05:16:51;96292.78;;;16.58;100.00
11198;BME280;5655;48.744;9.162;2023-05-28T05:19:16;96296.28;;;16.55;100.00
11198;BME280;5655;48.744;9.162;2023-05-28T05:21:41;96292.16;;;16.81;100.00
11198;BME280;5655;48.744;9.162;2023-05-28T05:24:07;96289.56;;;17.01;100.00
11198;BME280;5655;48.744;9.162;2023-05-28T05:26:32;96298.22;;;16.89;100.00
11198;BME280;5655;48.744;9.162;2023-05-28T05:28:57;96296.16;;;16.69;100.00
11198;BME280;5655;48.744;9.162;2023-05-28T05:31:22;96295.19;;;17.17;100.00
11198;BME280;5655;48.744;9.162;2023-05-28T05:33:48;96287.16;;;17.10;100.00
11198;BME280;5655;48.744;9.162;2023-05-28T05:36:13;96296.47;;;17.05;100.00
11198;BME280;5655;48.744;9.162;2023-05-28T05:38:38;96292.81;;;17.19;100.00
11198;BME280;5655;48.744;9.162;2023-05-28T05:41:04;96293.22;;;17.17;100.00
11198;BME280;5655;48.744;9.162;2023-05-28T05:43:29;96297.41;;;17.22;100.00
11198;BME280;5655;48.744;9.162;2023-05-28T05:45:54;96292.16;;;17.68;100.00
11198;BME280;5655;48.744;9.162;2023-05-28T05:48:20;96296.00;;;17.41;100.00
11198;BME280;5655;48.744;9.162;2023-05-28T05:50:52;96295.41;;;17.30;100.00
11198;BME280;5655;48.744;9.162;2023-05-28T05:53:23;96295.88;;;17.48;100.00
11198;BME280;5655;48.744;9.162;2023-05-28T05:55:49;96292.66;;;17.56;100.00
11198;BME280;5655;48.744;9.162;2023-05-28T05:58:15;96293.44;;;17.57;100.00
11198;BME280;5655;48.744;9.162;2023-05-28T06:00:41;96294.22;;;17.57;100.00
11198;BME280;5655;48.744;9.162;2023-05-28T06:03:06;96297.34;;;17.56;100.00
11198;BME280;5655;48.744;9.162;2023-05-28T06:05:33;96298.91;;;17.53;100.00
11198;BME280;5655;48.744;9.162;2023-05-28T06:07:58;96300.03;;;17.83;100.00
11198;BME280;5655;48.744;9.162;2023-05-28T06:10:23;96302.16;;;17.95;100.00
11198;BME280;5655;48.744;9.162;2023-05-28T06:12:49;96301.88;;;18.12;100.00
11198;BME280;5655;48.744;9.162;2023-05-28T06:15:14;96295.81;;;18.05;100.00
11198;BME280;5655;48.744;9.162;2023-05-28T06:17:40;96303.41;;;18.13;100.00
11198;BME280;5655;48.744;9.162;2023-05-28T06:20:07;96305.81;;;18.31;100.00
11198;BME280;5655;48.744;9.162;2023-05-28T06:22:33;96312.78;;;18.09;100.00
11198;BME280;5655;48.744;9.162;2023-05-28T06:24:58;96310.09;;;17.82;100.00
11198;BME280;5655;48.744;9.162;2023-05-28T06:27:26;96305.69;;;17.68;100.00
11198;BME280;5655;48.744;9.162;2023-05-28T06:29:51;96314.72;;;17.85;100.00
11198;BME280;5655;48.744;9.162;2023-05-28T06:32:17;96306.72;;;18.01;100.00
11198;BME280;5655;48.744;9.162;2023-05-28T06:34:42;96303.00;;;18.15;100.00
11198;BME280;5655;48.744;9.162;2023-05-28T06:37:08;96308.88;;;18.33;100.00
11198;BME280;5655;48.744;9.162;2023-05-28T06:39:33;96303.56;;;18.49;100.00
11198;BME280;5655;48.744;9.162;2023-05-28T06:41:58;96310.00;;;18.36;100.00
11198;BME280;5655;48.744;9.162;2023-05-28T06:44:24;96311.72;;;18.03;100.00
11198;BME280;5655;48.744;9.162;2023-05-28T06:46:49;96304.72;;;18.29;100.00
11198;BME280;5655;48.744;9.162;2023-05-28T06:49:15;96306.50;;;18.58;100.00
11198;BME280;5655;48.744;9.162;2023-05-28T06:51:40;96304.78;;;18.88;100.00
11198;BME280;5655;48.744;9.162;2023-05-28T06:54:05;96314.22;;;18.99;100.00
11198;BME280;5655;48.744;9.162;2023-05-28T06:56:31;96315.00;;;19.00;100.00
11198;BME280;5655;48.744;9.162;2023-05-28T06:58:56;96308.28;;;19.24;100.00
11198;BME280;5655;48.744;9.162;2023-05-28T07:01:21;96308.75;;;19.39;100.00
11198;BME280;5655;48.744;9.162;2023-05-28T07:03:47;96313.63;;;19.47;100.00
11198;BME280;5655;48.744;9.162;2023-05-28T07:06:12;96316.03;;;19.78;100.00
11198;BME280;5655;48.744;9.162;2023-05-28T07:08:38;96321.78;;;19.64;100.00
11198;BME280;5655;48.744;9.162;2023-05-28T07:11:10;96311.22;;;20.02;100.00
11198;BME280;5655;48.744;9.162;2023-05-28T07:13:36;96307.28;;;20.03;100.00
11198;BME280;5655;48.744;9.162;2023-05-28T07:16:01;96309.94;;;19.90;100.00
11198;BME280;5655;48.744;9.162;2023-05-28T07:18:27;96315.13;;;20.01;100.00
11198;BME280;5655;48.744;9.162;2023-05-28T07:20:52;96320.53;;;19.68;100.00
11198;BME280;5655;48.744;9.162;2023-05-28T07:23:18;96314.00;;;19.98;100.00
11198;BME280;5655;48.744;9.162;2023-05-28T07:25:43;96318.00;;;20.10;100.00
11198;BME280;5655;48.744;9.162;2023-05-28T07:28:09;96317.41;;;20.18;100.00
11198;BME280;5655;48.744;9.162;2023-05-28T07:30:34;96318.84;;;20.39;100.00
11198;BME280;5655;48.744;9.162;2023-05-28T07:32:59;96323.53;;;20.22;100.00
11198;BME280;5655;48.744;9.162;2023-05-28T07:35:25;96327.75;;;20.07;100.00
11198;BME280;5655;48.744;9.162;2023-05-28T07:37:52;96329.03;;;20.03;100.00
11198;BME280;5655;48.744;9.162;2023-05-28T07:40:17;96323.59;;;20.03;100.00
11198;BME280;5655;48.744;9.162;2023-05-28T07:42:43;96323.16;;;20.20;100.00
11198;BME280;5655;48.744;9.162;2023-05-28T07:45:09;96324.81;;;20.02;100.00
11198;BME280;5655;48.744;9.162;2023-05-28T07:47:35;96326.41;;;20.15;100.00
11198;BME280;5655;48.744;9.162;2023-05-28T07:50:04;96323.72;;;20.31;100.00
11198;BME280;5655;48.744;9.162;2023-05-28T07:52:30;96328.44;;;20.27;100.00
11198;BME280;5655;48.744;9.162;2023-05-28T07:54:57;96328.53;;;20.08;100.00
11198;BME280;5655;48.744;9.162;2023-05-28T07:57:23;96328.44;;;20.11;100.00
11198;BME280;5655;48.744;9.162;2023-05-28T07:59:49;96327.84;;;20.20;100.00
11198;BME280;5655;48.744;9.162;2023-05-28T08:02:14;96326.41;;;20.15;100.00
11198;BME280;5655;48.744;9.162;2023-05-28T08:04:39;96324.53;;;20.45;100.00
11198;BME280;5655;48.744;9.162;2023-05-28T08:07:05;96325.38;;;20.42;100.00
11198;BME280;5655;48.744;9.162;2023-05-28T08:09:31;96325.38;;;20.58;100.00
11198;BME280;5655;48.744;9.162;2023-05-28T08:11:56;96324.59;;;20.57;100.00
11198;BME280;5655;48.744;9.162;2023-05-28T08:14:21;96325.06;;;20.97;100.00
11198;BME280;5655;48.744;9.162;2023-05-28T08:16:47;96326.59;;;20.98;100.00
11198;BME280;5655;48.744;9.162;2023-05-28T08:19:12;96322.91;;;21.05;100.00
11198;BME280;5655;48.744;9.162;2023-05-28T08:21:37;96318.44;;;21.11;100.00
11198;BME280;5655;48.744;9.162;2023-05-28T08:24:02;96325.16;;;21.22;100.00
11198;BME280;5655;48.744;9.162;2023-05-28T08:26:28;96318.06;;;21.12;100.00
11198;BME280;5655;48.744;9.162;2023-05-28T08:28:53;96322.75;;;21.24;100.00
11198;BME280;5655;48.744;9.162;2023-05-28T08:31:18;96313.19;;;21.33;100.00
11198;BME280;5655;48.744;9.162;2023-05-28T08:33:44;96323.44;;;21.54;100.00
11198;BME280;5655;48.744;9.162;2023-05-28T08:36:09;96322.59;;;21.69;100.00
11198;BME280;5655;48.744;9.162;2023-05-28T08:38:35;96307.75;;;21.83;100.00
11198;BME280;5655;48.744;9.162;2023-05-28T08:41:01;96317.03;;;21.86;100.00
11198;BME280;5655;48.744;9.162;2023-05-28T08:43:26;96314.94;;;21.77;100.00
11198;BME280;5655;48.744;9.162;2023-05-28T08:45:53;96305.34;;;21.85;100.00
11198;BME280;5655;48.744;9.162;2023-05-28T08:48:19;96299.59;;;22.08;100.00
11198;BME280;5655;48.744;9.162;2023-05-28T08:50:49;96298.22;;;22.26;100.00
11198;BME280;5655;48.744;9.162;2023-05-28T08:53:22;96295.94;;;22.24;100.00
11198;BME280;5655;48.744;9.162;2023-05-28T08:55:48;96296.94;;;22.52;100.00
11198;BME280;5655;48.744;9.162;2023-05-28T08:58:14;96282.75;;;22.79;98.39
11198;BME280;5655;48.744;9.162;2023-05-28T09:00:41;96290.59;;;22.55;100.00
11198;BME280;5655;48.744;9.162;2023-05-28T09:03:07;96285.56;;;22.88;100.00
11198;BME280;5655;48.744;9.162;2023-05-28T09:05:36;96286.44;;;23.06;100.00
11198;BME280;5655;48.744;9.162;2023-05-28T09:08:06;96281.75;;;23.07;98.57
11198;BME280;5655;48.744;9.162;2023-05-28T09:10:33;96282.53;;;22.86;100.00
11198;BME280;5655;48.744;9.162;2023-05-28T09:12:59;96274.72;;;22.75;100.00
11198;BME280;5655;48.744;9.162;2023-05-28T09:15:25;96273.31;;;22.92;95.51
11198;BME280;5655;48.744;9.162;2023-05-28T09:17:50;96276.72;;;23.05;100.00
11198;BME280;5655;48.744;9.162;2023-05-28T09:20:16;96273.72;;;23.13;94.47
11198;BME280;5655;48.744;9.162;2023-05-28T09:22:43;96277.28;;;23.00;94.28
11198;BME280;5655;48.744;9.162;2023-05-28T09:25:09;96272.97;;;23.43;97.33
11198;BME280;5655;48.744;9.162;2023-05-28T09:27:35;96271.66;;;23.26;95.88
11198;BME280;5655;48.744;9.162;2023-05-28T09:30:10;96268.53;;;23.67;97.47
11198;BME280;5655;48.744;9.162;2023-05-28T09:32:38;96275.56;;;23.86;97.26
11198;BME280;5655;48.744;9.162;2023-05-28T09:35:06;96273.50;;;24.09;92.72
11198;BME280;5655;48.744;9.162;2023-05-28T09:37:34;96273.31;;;23.85;98.79
11198;BME280;5655;48.744;9.162;2023-05-28T09:40:04;96266.75;;;23.82;88.38
11198;BME280;5655;48.744;9.162;2023-05-28T09:42:37;96269.34;;;23.86;77.35
11198;BME280;5655;48.744;9.162;2023-05-28T09:45:09;96266.44;;;24.20;75.81
11198;BME280;5655;48.744;9.162;2023-05-28T09:47:44;96263.25;;;24.58;83.92
11198;BME280;5655;48.744;9.162;2023-05-28T09:50:10;96266.59;;;24.53;77.53
11198;BME280;5655;48.744;9.162;2023-05-28T09:52:38;96262.00;;;24.68;76.06
11198;BME280;5655;48.744;9.162;2023-05-28T09:55:06;96261.09;;;24.90;78.09
11198;BME280;5655;48.744;9.162;2023-05-28T09:57:33;96266.56;;;24.35;74.06
11198;BME280;5655;48.744;9.162;2023-05-28T10:00:00;96256.25;;;24.48;74.97
11198;BME280;5655;48.744;9.162;2023-05-28T10:05:20;96259.56;;;24.70;71.03
11198;BME280;5655;48.744;9.162;2023-05-28T10:07:49;96257.28;;;24.87;90.77
11198;BME280;5655;48.744;9.162;2023-05-28T10:10:18;96254.03;;;25.16;83.95
11198;BME280;5655;48.744;9.162;2023-05-28T10:12:45;96262.47;;;25.45;73.20
11198;BME280;5655;48.744;9.162;2023-05-28T10:15:11;96261.66;;;25.63;71.81
11198;BME280;5655;48.744;9.162;2023-05-28T10:17:37;96260.25;;;25.25;68.92
11198;BME280;5655;48.744;9.162;2023-05-28T10:20:03;96266.66;;;25.22;69.62
11198;BME280;5655;48.744;9.162;2023-05-28T10:22:35;96261.88;;;25.41;68.77
11198;BME280;5655;48.744;9.162;2023-05-28T10:25:00;96266.22;;;25.66;70.60
11198;BME280;5655;48.744;9.162;2023-05-28T10:27:30;96274.41;;;25.75;67.20
11198;BME280;5655;48.744;9.162;2023-05-28T10:29:57;96264.25;;;25.66;66.41
11198;BME280;5655;48.744;9.162;2023-05-28T10:32:22;96263.94;;;25.64;66.53
11198;BME280;5655;48.744;9.162;2023-05-28T10:34:47;96256.78;;;25.91;68.38
11198;BME280;5655;48.744;9.162;2023-05-28T10:37:22;96260.00;;;26.13;65.58
11198;BME280;5655;48.744;9.162;2023-05-28T10:39:48;96255.91;;;25.85;60.17
11198;BME280;5655;48.744;9.162;2023-05-28T10:42:15;96259.91;;;26.31;58.97
11198;BME280;5655;48.744;9.162;2023-05-28T10:47:34;96262.88;;;26.42;59.76
11198;BME280;5655;48.744;9.162;2023-05-28T10:50:13;96264.56;;;26.16;56.87
11198;BME280;5655;48.744;9.162;2023-05-28T10:52:39;96253.31;;;26.38;53.89
11198;BME280;5655;48.744;9.162;2023-05-28T10:55:07;96259.47;;;26.47;52.98
11198;BME280;5655;48.744;9.162;2023-05-28T11:00:05;96255.91;;;27.09;56.28
11198;BME280;5655;48.744;9.162;2023-05-28T11:02:39;96245.66;;;27.24;50.25
11198;BME280;5655;48.744;9.162;2023-05-28T11:05:05;96256.22;;;25.87;52.82
11198;BME280;5655;48.744;9.162;2023-05-28T11:07:39;96247.28;;;26.48;51.43
11198;BME280;5655;48.744;9.162;2023-05-28T11:10:14;96249.41;;;26.83;51.98
11198;BME280;5655;48.744;9.162;2023-05-28T11:12:40;96249.13;;;26.81;52.37
11198;BME280;5655;48.744;9.162;2023-05-28T11:15:08;96242.09;;;26.80;49.86
11198;BME280;5655;48.744;9.162;2023-05-28T11:17:43;96242.78;;;27.19;50.86
11198;BME280;5655;48.744;9.162;2023-05-28T11:22:41;96227.84;;;27.05;48.74
11198;BME280;5655;48.744;9.162;2023-05-28T11:25:07;96236.56;;;27.18;46.00
11198;BME280;5655;48.744;9.162;2023-05-28T11:27:34;96232.75;;;27.30;47.23
11198;BME280;5655;48.744;9.162;2023-05-28T11:30:02;96233.03;;;27.82;47.17
11198;BME280;5655;48.744;9.162;2023-05-28T11:32:32;96236.25;;;27.80;46.80
11198;BME280;5655;48.744;9.162;2023-05-28T11:34:58;96229.38;;;27.70;44.02
11198;BME280;5655;48.744;9.162;2023-05-28T11:37:25;96231.78;;;27.33;46.06
11198;BME280;5655;48.744;9.162;2023-05-28T11:39:52;96228.56;;;27.49;45.23
11198;BME280;5655;48.744;9.162;2023-05-28T11:42:19;96229.88;;;27.54;47.36
11198;BME280;5655;48.744;9.162;2023-05-28T11:44:45;96223.00;;;27.99;47.26
11198;BME280;5655;48.744;9.162;2023-05-28T11:47:11;96218.22;;;28.34;46.73
11198;BME280;5655;48.744;9.162;2023-05-28T11:49:37;96229.53;;;28.16;50.11
11198;BME280;5655;48.744;9.162;2023-05-28T11:52:02;96219.44;;;28.13;50.53
11198;BME280;5655;48.744;9.162;2023-05-28T11:54:28;96221.97;;;27.76;50.76
11198;BME280;5655;48.744;9.162;2023-05-28T11:56:53;96223.56;;;28.03;48.64
11198;BME280;5655;48.744;9.162;2023-05-28T11:59:22;96229.44;;;28.31;50.71
11198;BME280;5655;48.744;9.162;2023-05-28T12:01:51;96218.31;;;27.85;47.69
11198;BME280;5655;48.744;9.162;2023-05-28T12:04:21;96219.44;;;27.93;51.08
11198;BME280;5655;48.744;9.162;2023-05-28T12:06:54;96212.56;;;28.23;48.10
11198;BME280;5655;48.744;9.162;2023-05-28T12:09:20;96215.59;;;28.46;43.58
11198;BME280;5655;48.744;9.162;2023-05-28T12:12:01;96208.63;;;28.50;45.97
11198;BME280;5655;48.744;9.162;2023-05-28T12:14:29;96211.84;;;28.49;44.26
11198;BME280;5655;48.744;9.162;2023-05-28T12:16:55;96208.94;;;28.58;43.96
11198;BME280;5655;48.744;9.162;2023-05-28T12:19:20;96201.34;;;28.27;44.22
11198;BME280;5655;48.744;9.162;2023-05-28T12:21:46;96212.78;;;28.86;43.54
11198;BME280;5655;48.744;9.162;2023-05-28T12:24:14;96210.13;;;29.28;41.32
11198;BME280;5655;48.744;9.162;2023-05-28T12:26:41;96214.00;;;28.85;40.13
11198;BME280;5655;48.744;9.162;2023-05-28T12:29:06;96210.16;;;29.03;39.09
11198;BME280;5655;48.744;9.162;2023-05-28T12:31:32;96208.69;;;29.39;39.57
11198;BME280;5655;48.744;9.162;2023-05-28T12:33:57;96205.50;;;29.46;37.87
11198;BME280;5655;48.744;9.162;2023-05-28T12:36:22;96203.16;;;28.76;38.15
11198;BME280;5655;48.744;9.162;2023-05-28T12:38:48;96201.91;;;29.08;39.97
11198;BME280;5655;48.744;9.162;2023-05-28T12:41:13;96196.81;;;29.27;38.72
11198;BME280;5655;48.744;9.162;2023-05-28T12:43:38;96197.69;;;29.07;38.50
11198;BME280;5655;48.744;9.162;2023-05-28T12:46:04;96206.75;;;29.45;36.77
11198;BME280;5655;48.744;9.162;2023-05-28T12:48:29;96193.75;;;29.51;38.53
11198;BME280;5655;48.744;9.162;2023-05-28T12:50:58;96199.84;;;29.66;38.26
11198;BME280;5655;48.744;9.162;2023-05-28T12:53:23;96191.44;;;29.44;39.57
11198;BME280;5655;48.744;9.162;2023-05-28T12:55:49;96194.50;;;29.88;39.34
11198;BME280;5655;48.744;9.162;2023-05-28T12:58:14;96192.38;;;29.72;39.41
11198;BME280;5655;48.744;9.162;2023-05-28T13:00:39;96191.16;;;29.79;40.76
11198;BME280;5655;48.744;9.162;2023-05-28T13:03:05;96193.94;;;29.84;41.28
11198;BME280;5655;48.744;9.162;2023-05-28T13:05:30;96191.88;;;29.73;41.66
11198;BME280;5655;48.744;9.162;2023-05-28T13:08:01;96181.22;;;29.92;40.61